Time;durP1;ratioP1;P1;durP2;ratioP2;P2;SDS_P1;SDS_P2;PMS_P1;PMS_P2;Temp;Humidity;BMP_temperature;BMP_pressure;BME280_temperature;BME280_humidity;BME280_pressure;Samples;Min_cycle;Max_cycle;Signal;HPM_P1;HPM_P2
2021/12/22 00:02:11;;;;;;;36.97;22.58;;;11.80;99.90;;;;;;6204522;23;20402;-73
2021/12/22 00:04:43;;;;;;;34.13;22.92;;;11.70;99.90;;;;;;6176503;23;20316;-72
2021/12/22 00:07:10;;;;;;;32.95;24.40;;;11.80;99.90;;;;;;6174566;23;20020;-72
2021/12/22 00:09:36;;;;;;;32.88;22.70;;;11.80;99.90;;;;;;6207204;23;20039;-73
2021/12/22 00:12:02;;;;;;;33.92;22.10;;;11.80;99.90;;;;;;6181559;23;20020;-72
2021/12/22 00:14:28;;;;;;;31.63;23.67;;;11.90;99.90;;;;;;6182518;23;20013;-72
2021/12/22 00:16:54;;;;;;;37.08;24.42;;;11.90;99.90;;;;;;6208544;23;20024;-72
2021/12/22 00:19:20;;;;;;;38.25;24.45;;;11.80;99.90;;;;;;6207928;23;20020;-73
2021/12/22 00:21:46;;;;;;;36.47;23.30;;;11.80;99.90;;;;;;6208257;23;20019;-73
2021/12/22 00:24:13;;;;;;;33.90;23.42;;;11.70;99.90;;;;;;6207971;23;20013;-72
2021/12/22 00:26:39;;;;;;;32.78;22.40;;;11.70;99.90;;;;;;6209423;23;20012;-72
2021/12/22 00:29:06;;;;;;;33.00;23.92;;;11.80;99.90;;;;;;6173693;23;20533;-72
2021/12/22 00:31:40;;;;;;;35.63;23.13;;;11.80;99.90;;;;;;6164646;23;20017;-72
2021/12/22 00:34:14;;;;;;;35.28;23.52;;;11.80;99.90;;;;;;6177029;23;20369;-72
2021/12/22 00:36:40;;;;;;;39.40;24.20;;;11.80;99.90;;;;;;6183238;23;20435;-73
2021/12/22 00:39:06;;;;;;;37.55;24.58;;;11.80;99.90;;;;;;6202573;23;20016;-72
2021/12/22 00:41:32;;;;;;;34.33;23.70;;;11.80;99.90;;;;;;6181704;23;20103;-72
2021/12/22 00:43:58;;;;;;;37.10;25.92;;;11.80;99.90;;;;;;6207860;23;20016;-72
2021/12/22 00:46:24;;;;;;;37.58;24.70;;;11.80;99.90;;;;;;6208090;23;20058;-72
2021/12/22 00:48:50;;;;;;;33.58;24.02;;;11.80;99.90;;;;;;6183609;23;20012;-73
2021/12/22 00:51:16;;;;;;;39.50;25.83;;;11.70;99.90;;;;;;6208535;23;20394;-72
2021/12/22 00:53:41;;;;;;;41.85;26.15;;;11.70;99.90;;;;;;6209133;23;20072;-72
2021/12/22 00:56:08;;;;;;;40.03;25.73;;;11.70;99.90;;;;;;6182174;23;20019;-74
2021/12/22 00:58:34;;;;;;;38.38;26.30;;;11.70;99.90;;;;;;6209906;23;20001;-72
2021/12/22 01:01:00;;;;;;;46.50;26.80;;;11.60;99.90;;;;;;6209353;23;20074;-72
2021/12/22 01:03:27;;;;;;;41.45;27.05;;;11.70;99.90;;;;;;6158178;23;20009;-73
2021/12/22 01:05:53;;;;;;;38.17;25.85;;;11.60;99.90;;;;;;6209347;23;20027;-72
2021/12/22 01:08:19;;;;;;;38.10;24.98;;;11.60;99.90;;;;;;6209130;23;20013;-72
2021/12/22 01:10:45;;;;;;;40.83;26.38;;;11.70;99.90;;;;;;6208036;23;20012;-73
2021/12/22 01:13:13;;;;;;;36.88;25.17;;;11.70;99.90;;;;;;6181157;23;20032;-73
2021/12/22 01:15:40;;;;;;;35.15;24.33;;;11.80;99.90;;;;;;6183920;23;20013;-73
2021/12/22 01:18:14;;;;;;;41.45;25.88;;;11.80;99.90;;;;;;6208455;23;20020;-72
2021/12/22 01:21:01;;;;;;;43.35;27.17;;;11.80;99.90;;;;;;6183117;23;20035;-72
2021/12/22 01:23:32;;;;;;;39.35;26.45;;;11.70;99.90;;;;;;6181196;23;20017;-72
2021/12/22 01:25:59;;;;;;;36.30;25.00;;;11.80;99.90;;;;;;6181840;23;20016;-73
2021/12/22 01:28:26;;;;;;;39.08;26.92;;;11.80;99.90;;;;;;6181763;23;20421;-72
2021/12/22 01:30:55;;;;;;;41.72;25.88;;;11.80;99.90;;;;;;6182689;23;20008;-73
2021/12/22 01:33:21;;;;;;;43.03;27.45;;;11.80;99.90;;;;;;6181795;23;20029;-73
2021/12/22 01:35:47;;;;;;;36.33;25.45;;;11.80;99.90;;;;;;6181224;23;20440;-71
2021/12/22 01:38:13;;;;;;;42.92;27.15;;;11.80;99.90;;;;;;6186018;23;20032;-72
2021/12/22 01:40:42;;;;;;;37.60;24.75;;;11.80;99.90;;;;;;6182691;23;20059;-72
2021/12/22 01:43:08;;;;;;;45.72;27.25;;;11.90;99.90;;;;;;6183514;23;20066;-72
2021/12/22 01:45:57;;;;;;;37.30;25.20;;;11.90;99.90;;;;;;6210129;23;20047;-72
2021/12/22 01:51:54;;;;;;;37.15;25.90;;;11.90;99.90;;;;;;6204941;23;20055;-72
2021/12/22 01:54:21;;;;;;;37.47;26.67;;;11.90;99.90;;;;;;6207742;23;20013;-72
2021/12/22 01:56:51;;;;;;;38.85;25.92;;;11.90;99.90;;;;;;6207850;23;20023;-72
2021/12/22 01:59:20;;;;;;;38.03;26.80;;;11.90;99.90;;;;;;6208096;23;20040;-72
2021/12/22 02:01:46;;;;;;;41.42;26.48;;;11.90;99.90;;;;;;6208264;23;20013;-72
2021/12/22 02:04:13;;;;;;;37.53;26.75;;;11.90;99.90;;;;;;6181059;23;20020;-72
2021/12/22 02:06:45;;;;;;;38.10;24.38;;;11.90;99.90;;;;;;6183530;23;20035;-72
2021/12/22 02:09:16;;;;;;;40.38;27.15;;;11.90;99.90;;;;;;6181832;23;20012;-72
2021/12/22 02:11:42;;;;;;;41.53;26.25;;;11.90;99.90;;;;;;6181930;23;20363;-72
2021/12/22 02:14:08;;;;;;;39.38;26.60;;;11.90;99.90;;;;;;6181651;23;20017;-72
2021/12/22 02:16:38;;;;;;;42.33;26.77;;;11.90;99.90;;;;;;6181964;23;20008;-73
2021/12/22 02:19:09;;;;;;;39.20;25.23;;;11.90;99.90;;;;;;6180585;23;20021;-73
2021/12/22 02:21:42;;;;;;;36.22;25.80;;;11.90;99.90;;;;;;6208977;23;20083;-73
2021/12/22 02:24:08;;;;;;;39.28;25.40;;;11.90;99.90;;;;;;6207129;23;20012;-72
2021/12/22 02:26:40;;;;;;;37.22;25.48;;;11.90;99.90;;;;;;6181438;23;20786;-72
2021/12/22 02:29:17;;;;;;;40.08;25.85;;;11.90;99.90;;;;;;6207280;23;20023;-72
2021/12/22 02:31:47;;;;;;;37.65;25.73;;;12.00;99.90;;;;;;6180764;23;20091;-73
2021/12/22 02:34:15;;;;;;;43.58;26.30;;;12.00;99.90;;;;;;6179760;23;20017;-72
2021/12/22 02:36:43;;;;;;;42.85;26.10;;;12.00;99.90;;;;;;6209038;23;20040;-73
2021/12/22 02:39:09;;;;;;;37.45;25.60;;;12.00;99.90;;;;;;6206313;23;20036;-72
2021/12/22 02:41:37;;;;;;;39.92;27.75;;;12.00;99.90;;;;;;6181779;23;20017;-72
2021/12/22 02:44:07;;;;;;;40.80;27.05;;;12.00;99.90;;;;;;6206974;23;20424;-72
2021/12/22 02:46:35;;;;;;;40.20;26.20;;;12.00;99.90;;;;;;6167222;23;20448;-73
2021/12/22 02:49:05;;;;;;;36.90;25.75;;;11.90;99.90;;;;;;6207137;23;20020;-71
2021/12/22 02:51:31;;;;;;;39.28;26.15;;;11.90;99.90;;;;;;6206686;23;20678;-71
2021/12/22 02:56:38;;;;;;;35.00;25.52;;;12.00;99.90;;;;;;6207905;23;20016;-72
2021/12/22 03:04:18;;;;;;;36.03;25.45;;;11.80;99.90;;;;;;6205708;23;20436;-72
2021/12/22 03:06:56;;;;;;;38.28;25.13;;;11.80;99.90;;;;;;6208497;23;20502;-73
2021/12/22 03:09:32;;;;;;;39.58;24.92;;;11.80;99.90;;;;;;6178952;23;20021;-73
2021/12/22 03:12:03;;;;;;;37.33;26.33;;;11.80;99.90;;;;;;6155652;23;20452;-71
2021/12/22 03:14:29;;;;;;;37.55;26.27;;;11.70;99.90;;;;;;6205621;23;20028;-72
2021/12/22 03:16:56;;;;;;;40.70;26.08;;;11.70;99.90;;;;;;6205476;23;20417;-72
2021/12/22 03:19:26;;;;;;;37.90;24.73;;;11.70;99.90;;;;;;6178707;23;20911;-72
2021/12/22 03:21:59;;;;;;;43.03;24.65;;;11.70;99.90;;;;;;6207234;23;20012;-72
2021/12/22 03:24:26;;;;;;;37.03;26.27;;;11.60;99.90;;;;;;6205810;23;20061;-72
2021/12/22 03:26:54;;;;;;;37.30;25.85;;;11.70;99.90;;;;;;6179991;23;20016;-72
2021/12/22 03:29:20;;;;;;;34.63;25.80;;;11.70;99.90;;;;;;6180396;23;20039;-72
2021/12/22 03:31:47;;;;;;;39.75;27.38;;;11.60;99.90;;;;;;6206754;23;20020;-73
2021/12/22 03:34:14;;;;;;;35.83;26.55;;;11.60;99.90;;;;;;6178900;23;20040;-72
2021/12/22 03:36:42;;;;;;;42.55;27.48;;;11.60;99.90;;;;;;6207127;23;20008;-73
2021/12/22 03:39:09;;;;;;;41.70;27.05;;;11.60;99.90;;;;;;6180205;23;20013;-73
2021/12/22 03:41:36;;;;;;;39.15;26.60;;;11.60;99.90;;;;;;6182291;23;20013;-71
2021/12/22 03:44:06;;;;;;;42.20;25.98;;;11.60;99.90;;;;;;6183255;23;20025;-74
2021/12/22 03:46:34;;;;;;;43.47;27.48;;;11.60;99.90;;;;;;6208072;23;20017;-72
2021/12/22 03:49:01;;;;;;;37.33;26.02;;;11.60;99.90;;;;;;6182395;23;20310;-73
2021/12/22 03:51:27;;;;;;;39.05;26.13;;;11.70;99.90;;;;;;6158288;23;20027;-72
2021/12/22 03:53:54;;;;;;;38.03;25.95;;;11.70;99.90;;;;;;6182739;23;20434;-73
2021/12/22 03:56:20;;;;;;;39.97;27.55;;;11.70;99.90;;;;;;6208023;23;20085;-71
2021/12/22 03:58:47;;;;;;;42.38;26.33;;;11.70;99.90;;;;;;6181795;23;20012;-73
2021/12/22 04:01:14;;;;;;;43.20;28.38;;;11.70;99.90;;;;;;6158274;23;20025;-72
2021/12/22 04:03:43;;;;;;;39.78;27.05;;;11.70;99.90;;;;;;6210231;23;20013;-73
2021/12/22 04:06:09;;;;;;;44.38;28.25;;;11.80;99.90;;;;;;6205716;23;20040;-72
2021/12/22 04:08:35;;;;;;;39.22;27.02;;;11.80;99.90;;;;;;6181831;23;20012;-70
2021/12/22 04:11:02;;;;;;;36.83;27.25;;;11.70;99.90;;;;;;6210487;23;20534;-73
2021/12/22 04:13:28;;;;;;;40.88;27.80;;;11.70;99.90;;;;;;6181685;23;20021;-72
2021/12/22 04:15:55;;;;;;;47.42;28.38;;;11.70;99.90;;;;;;6182316;23;20989;-72
2021/12/22 04:18:21;;;;;;;42.80;27.75;;;11.60;99.90;;;;;;6180917;23;20020;-72
2021/12/22 04:20:47;;;;;;;45.65;28.52;;;11.70;99.90;;;;;;6209124;23;20073;-72
2021/12/22 04:23:14;;;;;;;39.85;27.58;;;11.60;99.90;;;;;;6209298;23;20345;-71
2021/12/22 04:25:41;;;;;;;40.90;27.45;;;11.50;99.90;;;;;;6182929;23;20463;-72
2021/12/22 04:28:10;;;;;;;42.97;28.20;;;11.60;99.90;;;;;;6206864;23;20024;-73
2021/12/22 04:30:40;;;;;;;41.90;28.65;;;11.50;99.90;;;;;;6209454;23;20042;-72
2021/12/22 04:33:07;;;;;;;41.35;29.60;;;11.50;99.90;;;;;;6181500;23;20024;-72
2021/12/22 04:35:33;;;;;;;41.60;29.17;;;11.50;99.90;;;;;;6183682;23;20028;-72
2021/12/22 04:38:01;;;;;;;50.17;29.58;;;11.50;99.90;;;;;;6181548;23;20470;-72
2021/12/22 04:40:27;;;;;;;39.65;28.02;;;11.40;99.90;;;;;;6207786;23;20013;-73
2021/12/22 04:42:54;;;;;;;40.50;28.20;;;11.50;99.90;;;;;;6208725;23;20025;-72
2021/12/22 04:45:20;;;;;;;45.60;29.02;;;11.50;99.90;;;;;;6180799;23;20020;-72
2021/12/22 04:47:48;;;;;;;56.67;30.45;;;11.50;99.90;;;;;;6182394;23;20803;-73
2021/12/22 04:50:18;;;;;;;49.20;29.85;;;11.50;99.90;;;;;;6156366;23;20025;-73
2021/12/22 04:53:00;;;;;;;57.33;33.97;;;11.50;99.90;;;;;;6207988;23;20063;-72
2021/12/22 04:55:27;;;;;;;59.45;34.22;;;11.50;99.90;;;;;;6179414;23;20017;-72
2021/12/22 04:57:55;;;;;;;61.10;33.80;;;11.50;99.90;;;;;;6209477;23;20840;-72
2021/12/22 05:00:26;;;;;;;53.75;31.80;;;11.40;99.90;;;;;;6179690;23;20031;-72
2021/12/22 05:02:54;;;;;;;61.00;33.10;;;11.50;99.90;;;;;;6178913;23;20020;-71
2021/12/22 05:05:21;;;;;;;57.08;32.50;;;11.50;99.90;;;;;;6158364;23;20024;-72
2021/12/22 05:07:47;;;;;;;54.78;32.03;;;11.50;99.90;;;;;;6208692;23;20135;-72
2021/12/22 05:10:15;;;;;;;60.42;32.00;;;11.60;99.90;;;;;;6181848;23;20051;-72
2021/12/22 05:12:42;;;;;;;50.88;30.58;;;11.50;99.90;;;;;;6207312;23;20020;-72
2021/12/22 05:15:08;;;;;;;60.35;31.10;;;11.60;99.90;;;;;;6179770;23;20024;-72
2021/12/22 05:20:05;;;;;;;56.30;30.70;;;11.50;99.90;;;;;;6206649;23;20031;-72
2021/12/22 05:22:32;;;;;;;50.00;31.10;;;11.60;99.90;;;;;;6208110;23;20016;-72
2021/12/22 05:24:59;;;;;;;48.55;29.48;;;11.60;99.90;;;;;;6207631;23;20023;-73
2021/12/22 05:27:25;;;;;;;50.92;31.60;;;11.60;99.90;;;;;;6179540;23;20063;-72
2021/12/22 05:29:52;;;;;;;50.92;31.65;;;11.60;99.90;;;;;;6182487;23;20012;-73
2021/12/22 05:32:18;;;;;;;50.67;29.60;;;11.60;99.90;;;;;;6206399;23;20024;-73
2021/12/22 05:34:44;;;;;;;42.40;26.48;;;11.60;99.90;;;;;;6181169;23;20021;-72
2021/12/22 05:37:10;;;;;;;48.72;28.45;;;11.60;99.90;;;;;;6207863;23;20024;-74
2021/12/22 05:39:36;;;;;;;51.63;29.33;;;11.60;99.90;;;;;;6206977;23;20034;-73
2021/12/22 05:42:04;;;;;;;53.42;29.15;;;11.60;99.90;;;;;;6208345;23;20030;-74
2021/12/22 05:44:29;;;;;;;55.17;28.73;;;11.60;99.90;;;;;;6207366;23;20100;-72
2021/12/22 05:46:56;;;;;;;51.40;29.60;;;11.60;99.90;;;;;;6183451;23;20413;-72
2021/12/22 05:49:22;;;;;;;48.22;29.77;;;11.60;99.90;;;;;;6209067;23;20020;-71
2021/12/22 05:51:48;;;;;;;50.17;29.00;;;11.60;99.90;;;;;;6209529;23;20028;-72
2021/12/22 05:54:15;;;;;;;49.85;29.20;;;11.70;99.90;;;;;;6209268;23;20021;-73
2021/12/22 05:56:41;;;;;;;49.08;28.75;;;11.70;99.90;;;;;;6210297;23;20064;-72
2021/12/22 05:59:08;;;;;;;47.38;27.40;;;11.70;99.90;;;;;;6179759;23;20019;-73
2021/12/22 06:01:35;;;;;;;49.58;29.40;;;11.70;99.90;;;;;;6206851;23;20036;-72
2021/12/22 06:04:03;;;;;;;54.55;30.05;;;11.70;99.90;;;;;;6207249;23;20016;-72
2021/12/22 06:06:30;;;;;;;47.70;29.77;;;11.60;99.90;;;;;;6178842;23;20021;-72
2021/12/22 06:08:56;;;;;;;47.33;29.00;;;11.60;99.90;;;;;;6182334;23;20023;-72
2021/12/22 06:11:23;;;;;;;53.53;29.33;;;11.60;99.90;;;;;;6206680;23;20070;-74
2021/12/22 06:13:49;;;;;;;50.20;29.58;;;11.70;99.90;;;;;;6207880;23;20013;-73
2021/12/22 06:16:15;;;;;;;44.85;27.27;;;11.60;99.90;;;;;;6180876;23;20039;-72
2021/12/22 06:18:44;;;;;;;45.35;26.73;;;11.60;99.90;;;;;;6206949;23;20043;-72
2021/12/22 06:21:11;;;;;;;47.15;26.15;;;11.60;99.90;;;;;;6180821;23;20016;-73
2021/12/22 06:23:39;;;;;;;48.28;28.33;;;11.50;99.90;;;;;;6181309;23;20001;-71
2021/12/22 06:26:07;;;;;;;46.05;26.75;;;11.40;99.90;;;;;;6179216;23;20016;-72
2021/12/22 06:28:33;;;;;;;44.00;27.23;;;11.30;99.90;;;;;;6182103;23;20336;-72
2021/12/22 06:30:59;;;;;;;48.10;27.20;;;11.30;99.90;;;;;;6183253;23;20008;-72
2021/12/22 06:33:25;;;;;;;47.95;28.10;;;11.30;99.90;;;;;;6180077;23;20075;-72
2021/12/22 06:35:51;;;;;;;49.90;28.55;;;11.20;99.90;;;;;;6207737;23;20012;-73
2021/12/22 06:38:18;;;;;;;51.03;29.65;;;11.20;99.90;;;;;;6180017;23;20444;-72
2021/12/22 06:40:44;;;;;;;54.85;29.27;;;11.10;99.90;;;;;;6180373;23;20016;-71
2021/12/22 06:43:10;;;;;;;48.50;28.10;;;11.20;99.90;;;;;;6207744;23;20079;-73
2021/12/22 06:45:36;;;;;;;47.85;29.30;;;11.10;99.90;;;;;;6180196;23;20013;-73
2021/12/22 06:48:03;;;;;;;54.92;29.42;;;11.20;99.90;;;;;;6207695;23;20480;-72
2021/12/22 06:50:29;;;;;;;49.97;29.67;;;11.10;99.90;;;;;;6179869;23;20451;-72
2021/12/22 06:52:54;;;;;;;53.15;28.73;;;11.10;99.90;;;;;;6180168;23;20020;-72
2021/12/22 06:55:20;;;;;;;46.60;27.77;;;11.10;99.90;;;;;;6180513;23;20507;-72
2021/12/22 06:57:47;;;;;;;51.47;29.15;;;11.20;99.90;;;;;;6206551;23;20027;-73
2021/12/22 07:00:14;;;;;;;50.97;27.08;;;11.10;99.90;;;;;;6205834;23;20115;-72
2021/12/22 07:02:40;;;;;;;46.95;26.38;;;11.10;99.90;;;;;;6181887;23;20020;-72
2021/12/22 07:05:10;;;;;;;52.17;26.80;;;11.00;99.90;;;;;;6205612;23;20074;-73
2021/12/22 07:07:37;;;;;;;38.38;24.80;;;11.00;99.90;;;;;;6207963;23;20020;-72
2021/12/22 07:10:08;;;;;;;41.08;25.13;;;11.00;99.90;;;;;;6175657;23;20101;-72
2021/12/22 07:12:35;;;;;;;47.58;25.70;;;11.00;99.90;;;;;;6207258;23;20119;-71
2021/12/22 07:15:05;;;;;;;40.10;24.30;;;11.10;99.90;;;;;;6181798;23;20016;-72
2021/12/22 07:17:33;;;;;;;42.67;25.15;;;11.10;99.90;;;;;;6208248;23;20080;-73
2021/12/22 07:20:00;;;;;;;48.30;26.42;;;11.20;99.90;;;;;;6207471;23;20456;-72
2021/12/22 07:22:26;;;;;;;43.40;24.13;;;11.10;99.90;;;;;;6155833;23;20444;-73
2021/12/22 07:24:52;;;;;;;39.33;21.92;;;11.10;99.90;;;;;;6208511;23;20043;-72
2021/12/22 07:27:19;;;;;;;41.60;23.17;;;11.20;99.90;;;;;;6183120;23;20728;-72
2021/12/22 07:29:44;;;;;;;46.35;24.38;;;11.20;99.90;;;;;;6182984;23;20016;-72
2021/12/22 07:32:10;;;;;;;44.83;23.20;;;11.20;99.90;;;;;;6207694;23;20103;-72
2021/12/22 07:34:59;;;;;;;42.88;23.88;;;11.20;99.90;;;;;;6184176;23;20005;-73
2021/12/22 07:37:58;;;;;;;37.00;23.20;;;11.20;99.90;;;;;;6159762;23;20024;-73
2021/12/22 07:40:24;;;;;;;41.47;23.17;;;11.30;99.90;;;;;;6208503;23;20009;-75
2021/12/22 07:42:50;;;;;;;43.72;24.33;;;11.20;99.90;;;;;;6209238;23;20016;-73
2021/12/22 07:45:16;;;;;;;44.65;24.05;;;11.30;99.90;;;;;;6181260;23;20021;-73
2021/12/22 07:47:43;;;;;;;45.50;24.33;;;11.30;99.90;;;;;;6183853;23;20012;-73
2021/12/22 07:50:09;;;;;;;40.78;23.27;;;11.30;99.90;;;;;;6192724;23;20012;-75
2021/12/22 07:52:35;;;;;;;43.28;24.88;;;11.30;99.90;;;;;;6183579;23;20047;-72
2021/12/22 07:55:03;;;;;;;37.88;24.17;;;11.30;99.90;;;;;;6209881;23;20516;-73
2021/12/22 07:57:29;;;;;;;36.10;23.05;;;11.30;99.90;;;;;;6182469;23;20052;-73
2021/12/22 07:59:55;;;;;;;36.25;22.17;;;11.30;99.90;;;;;;6195878;23;20356;-73
2021/12/22 08:02:21;;;;;;;37.90;23.20;;;11.40;99.90;;;;;;6180591;23;20440;-72
2021/12/22 08:04:47;;;;;;;37.17;23.35;;;11.40;99.90;;;;;;6160634;23;20012;-73
2021/12/22 08:07:15;;;;;;;37.53;22.98;;;11.50;99.90;;;;;;6209596;23;20092;-74
2021/12/22 08:09:41;;;;;;;39.30;23.05;;;11.50;99.90;;;;;;6182203;23;20018;-71
2021/12/22 08:12:07;;;;;;;34.90;21.92;;;11.50;99.90;;;;;;6159192;23;20075;-75
2021/12/22 08:14:38;;;;;;;39.88;21.77;;;11.40;99.90;;;;;;6183712;23;20012;-73
2021/12/22 08:17:06;;;;;;;35.60;22.40;;;11.50;99.90;;;;;;6183117;23;20017;-73
2021/12/22 08:19:32;;;;;;;39.03;24.13;;;11.50;99.90;;;;;;6182590;23;20016;-73
2021/12/22 08:21:58;;;;;;;36.97;23.60;;;11.50;99.90;;;;;;6208334;23;20104;-72
2021/12/22 08:24:24;;;;;;;53.00;24.23;;;11.50;99.90;;;;;;6191899;23;20009;-73
2021/12/22 08:26:51;;;;;;;39.83;23.63;;;11.50;99.90;;;;;;6183796;23;20425;-74
2021/12/22 08:29:18;;;;;;;37.05;23.88;;;11.50;99.90;;;;;;6169747;23;20024;-73
2021/12/22 08:31:45;;;;;;;41.85;22.40;;;11.60;99.90;;;;;;6180094;23;20395;-73
2021/12/22 08:34:13;;;;;;;39.15;24.92;;;11.70;99.90;;;;;;6208433;23;20503;-74
2021/12/22 08:39:23;;;;;;;49.40;27.48;;;11.80;99.90;;;;;;6207298;23;20023;-73
2021/12/22 08:41:53;;;;;;;42.05;27.33;;;11.80;99.90;;;;;;6194460;23;20012;-74
2021/12/22 08:44:21;;;;;;;38.95;26.50;;;11.80;99.90;;;;;;6203130;23;20020;-73
2021/12/22 08:46:50;;;;;;;45.60;26.63;;;11.90;99.90;;;;;;6148255;23;20098;-73
2021/12/22 08:49:17;;;;;;;49.97;26.48;;;11.90;99.90;;;;;;6160367;23;20059;-74
2021/12/22 08:51:44;;;;;;;44.45;26.80;;;11.90;99.90;;;;;;6176280;23;20035;-72
2021/12/22 08:54:10;;;;;;;47.50;27.23;;;11.90;99.90;;;;;;6173356;23;20023;-73
2021/12/22 08:56:37;;;;;;;49.58;25.75;;;12.00;99.90;;;;;;6161086;23;20605;-73
2021/12/22 08:59:04;;;;;;;55.58;26.63;;;12.00;99.90;;;;;;6198403;23;20009;-73
2021/12/22 09:01:31;;;;;;;51.90;26.55;;;12.00;99.90;;;;;;6171735;23;20012;-72
2021/12/22 09:03:57;;;;;;;46.55;26.80;;;12.00;99.90;;;;;;6175875;23;20078;-73
2021/12/22 09:06:24;;;;;;;45.15;26.33;;;12.00;99.90;;;;;;6183795;23;20067;-73
2021/12/22 09:08:52;;;;;;;47.47;27.60;;;12.00;99.90;;;;;;6176428;23;20016;-73
2021/12/22 09:11:19;;;;;;;45.40;24.67;;;12.00;99.90;;;;;;6197830;23;20025;-72
2021/12/22 09:13:46;;;;;;;44.60;26.70;;;12.10;99.90;;;;;;6173160;23;20012;-73
2021/12/22 09:16:13;;;;;;;43.85;26.00;;;12.10;99.90;;;;;;6203298;23;20077;-73
2021/12/22 09:18:40;;;;;;;46.50;26.33;;;12.10;99.90;;;;;;6181256;23;20024;-73
2021/12/22 09:21:09;;;;;;;42.58;25.92;;;12.10;99.90;;;;;;6198920;23;20059;-72
2021/12/22 09:23:35;;;;;;;44.88;25.10;;;12.00;99.90;;;;;;6174022;23;20013;-72
2021/12/22 09:26:02;;;;;;;46.63;25.08;;;12.10;99.90;;;;;;6148027;23;20019;-73
2021/12/22 09:28:28;;;;;;;49.20;25.52;;;12.00;99.90;;;;;;6173515;23;20009;-73
2021/12/22 09:30:54;;;;;;;50.10;24.20;;;12.10;99.90;;;;;;6163675;23;20019;-74
2021/12/22 09:33:23;;;;;;;46.50;25.95;;;12.20;99.90;;;;;;6197439;23;20024;-73
2021/12/22 09:35:50;;;;;;;44.38;25.55;;;12.30;99.90;;;;;;6180418;23;20016;-74
2021/12/22 09:38:17;;;;;;;40.55;23.80;;;12.40;99.90;;;;;;6165816;23;20046;-73
2021/12/22 09:40:44;;;;;;;42.90;24.05;;;12.30;99.90;;;;;;6155783;23;20345;-73
2021/12/22 09:43:10;;;;;;;50.30;25.55;;;12.40;99.90;;;;;;6207996;23;20067;-73
2021/12/22 09:45:42;;;;;;;46.28;25.70;;;12.40;99.90;;;;;;6167837;23;20096;-74
2021/12/22 09:50:53;;;;;;;49.17;24.98;;;12.30;99.90;;;;;;6202416;23;20016;-73
2021/12/22 09:53:22;;;;;;;43.33;22.80;;;12.20;99.90;;;;;;6151530;23;20376;-73
2021/12/22 09:55:49;;;;;;;49.25;24.00;;;12.10;99.90;;;;;;6198861;23;20444;-72
2021/12/22 09:58:16;;;;;;;40.78;24.20;;;12.00;99.90;;;;;;6173647;23;20016;-73
2021/12/22 10:00:43;;;;;;;43.63;23.75;;;12.00;99.90;;;;;;6171504;23;20047;-74
2021/12/22 10:03:11;;;;;;;44.20;24.70;;;11.90;99.90;;;;;;6169421;23;20744;-72
2021/12/22 10:05:38;;;;;;;53.65;24.88;;;11.90;99.90;;;;;;6199496;23;20017;-73
2021/12/22 10:08:14;;;;;;;50.58;24.83;;;11.90;99.90;;;;;;6197967;23;20012;-73
2021/12/22 10:10:44;;;;;;;45.58;25.63;;;11.90;99.90;;;;;;6154717;23;20016;-73
2021/12/22 10:13:23;;;;;;;44.28;24.98;;;12.00;99.90;;;;;;6130993;23;20164;-72
2021/12/22 10:15:50;;;;;;;47.15;25.80;;;12.00;99.90;;;;;;6196163;23;20024;-73
2021/12/22 10:18:19;;;;;;;46.60;25.52;;;12.00;99.90;;;;;;6197444;23;20027;-73
2021/12/22 10:20:49;;;;;;;43.33;25.63;;;11.90;99.90;;;;;;6197096;23;20070;-73
2021/12/22 10:23:19;;;;;;;46.97;24.50;;;11.90;99.90;;;;;;6171236;23;20462;-75
2021/12/22 10:26:02;;;;;;;46.85;24.40;;;11.90;99.90;;;;;;6199264;23;20088;-74
2021/12/22 10:28:44;;;;;;;47.77;24.70;;;12.00;99.90;;;;;;6198511;23;20012;-74
2021/12/22 10:31:11;;;;;;;50.90;26.10;;;11.90;99.90;;;;;;6169874;23;20321;-75
2021/12/22 10:33:39;;;;;;;54.85;26.00;;;11.90;99.90;;;;;;6171979;23;20092;-73
2021/12/22 10:36:13;;;;;;;54.38;26.63;;;11.90;99.90;;;;;;6169461;23;20027;-72
2021/12/22 10:38:46;;;;;;;49.45;25.80;;;11.90;99.90;;;;;;6172305;23;20329;-73
2021/12/22 10:41:13;;;;;;;53.40;25.88;;;11.90;99.90;;;;;;6144098;23;20024;-72
2021/12/22 10:43:45;;;;;;;48.90;27.15;;;11.80;99.90;;;;;;6174026;23;20379;-74
2021/12/22 10:46:15;;;;;;;53.45;28.33;;;11.90;99.90;;;;;;6172340;23;20017;-73
2021/12/22 10:51:40;;;;;;;53.58;27.92;;;11.90;99.90;;;;;;6197689;23;20027;-72
2021/12/22 10:54:08;;;;;;;48.88;28.20;;;11.90;99.90;;;;;;6172904;23;20013;-73
2021/12/22 10:56:46;;;;;;;53.50;29.55;;;11.90;99.90;;;;;;6174703;23;20017;-73
2021/12/22 10:59:19;;;;;;;56.58;28.67;;;11.90;99.90;;;;;;6173440;23;20492;-74
2021/12/22 11:01:58;;;;;;;50.72;28.20;;;11.90;99.90;;;;;;6169807;23;20074;-73
2021/12/22 11:04:29;;;;;;;49.72;28.00;;;11.90;99.90;;;;;;6173500;23;20025;-73
2021/12/22 11:07:04;;;;;;;52.20;27.33;;;12.10;99.90;;;;;;6174723;23;20523;-72
2021/12/22 11:09:34;;;;;;;53.25;29.80;;;12.10;99.90;;;;;;6174808;23;20467;-72
2021/12/22 11:12:01;;;;;;;59.13;29.58;;;12.10;99.90;;;;;;6199445;23;20070;-73
2021/12/22 11:14:31;;;;;;;53.72;29.98;;;12.10;99.90;;;;;;6175029;23;20067;-73
2021/12/22 11:17:07;;;;;;;55.75;30.25;;;12.10;99.90;;;;;;6200794;23;20016;-72
2021/12/22 11:20:03;;;;;;;59.13;28.55;;;12.10;99.90;;;;;;6175401;23;20013;-73
2021/12/22 11:23:00;;;;;;;56.80;31.27;;;12.20;99.90;;;;;;6172670;23;20099;-73
2021/12/22 11:25:28;;;;;;;55.38;31.95;;;12.20;99.90;;;;;;6158901;23;20452;-74
2021/12/22 11:27:55;;;;;;;50.08;29.58;;;12.10;99.90;;;;;;6174240;23;20024;-72
2021/12/22 11:30:26;;;;;;;50.80;30.90;;;12.20;99.90;;;;;;6172062;23;20364;-74
2021/12/22 11:32:53;;;;;;;55.63;31.55;;;12.10;99.90;;;;;;6172946;23;20074;-72
2021/12/22 11:35:21;;;;;;;56.90;32.13;;;12.20;99.90;;;;;;6199851;23;20047;-73
2021/12/22 11:37:47;;;;;;;55.30;31.60;;;12.20;99.90;;;;;;6168759;23;20107;-74
2021/12/22 11:40:18;;;;;;;52.75;29.92;;;12.20;99.90;;;;;;6170357;23;20029;-73
2021/12/22 11:42:44;;;;;;;63.90;31.20;;;12.20;99.90;;;;;;6173491;23;20008;-73
2021/12/22 11:45:10;;;;;;;53.15;31.30;;;12.20;99.90;;;;;;6201179;23;20937;-73
2021/12/22 11:47:39;;;;;;;57.20;32.08;;;12.20;99.90;;;;;;6172927;23;20523;-73
2021/12/22 11:50:13;;;;;;;62.58;31.98;;;12.20;99.90;;;;;;6200345;23;20020;-73
2021/12/22 11:52:43;;;;;;;65.00;32.83;;;12.20;99.90;;;;;;6200594;23;20195;-72
2021/12/22 11:55:19;;;;;;;59.67;33.30;;;12.30;99.90;;;;;;6183117;23;20392;-73
2021/12/22 11:57:52;;;;;;;56.30;32.08;;;12.30;99.90;;;;;;6175519;23;20059;-73
2021/12/22 12:00:23;;;;;;;51.40;31.75;;;12.30;99.90;;;;;;6173229;23;20455;-73
2021/12/22 12:02:49;;;;;;;59.78;32.15;;;12.30;99.90;;;;;;6171873;23;20013;-75
2021/12/22 12:05:19;;;;;;;60.05;33.38;;;12.30;99.90;;;;;;6173879;23;20078;-73
2021/12/22 12:07:57;;;;;;;58.78;32.35;;;12.20;99.90;;;;;;6182296;23;20088;-74
2021/12/22 12:10:32;;;;;;;55.13;32.90;;;12.30;99.90;;;;;;6208962;23;20027;-75
2021/12/22 12:13:05;;;;;;;62.30;32.90;;;12.40;99.90;;;;;;6181200;23;20401;-72
2021/12/22 12:21:38;;;;;;;58.03;31.40;;;12.50;99.90;;;;;;6145800;23;20325;-73
2021/12/22 12:22:19;;;;;;;62.70;33.25;;;12.40;99.90;;;;;;6187847;23;20352;-73
2021/12/22 12:24:59;;;;;;;64.20;32.55;;;12.50;99.90;;;;;;6206812;23;20060;-76
2021/12/22 12:27:30;;;;;;;55.67;32.67;;;12.50;99.90;;;;;;6168131;23;20013;-74
2021/12/22 12:29:58;;;;;;;58.22;31.90;;;12.50;99.90;;;;;;6203285;23;20008;-76
2021/12/22 12:32:41;;;;;;;63.17;33.35;;;12.50;99.90;;;;;;6195571;23;20017;-73
2021/12/22 12:38:04;;;;;;;60.40;33.78;;;12.40;99.90;;;;;;6197867;23;20371;-74
2021/12/22 12:40:59;;;;;;;61.95;33.47;;;12.40;99.90;;;;;;6168978;23;20016;-73
2021/12/22 12:43:44;;;;;;;66.88;34.50;;;12.30;99.90;;;;;;6167128;23;20035;-73
2021/12/22 12:46:21;;;;;;;64.28;34.50;;;12.30;99.90;;;;;;6199926;23;20027;-73
2021/12/22 12:49:02;;;;;;;62.40;33.58;;;12.20;99.90;;;;;;6174743;23;20444;-74
2021/12/22 12:51:33;;;;;;;62.53;34.90;;;12.30;99.90;;;;;;6174178;23;20017;-74
2021/12/22 12:54:21;;;;;;;67.13;36.47;;;12.30;99.90;;;;;;6137099;23;20448;-75
2021/12/22 12:56:49;;;;;;;60.10;34.85;;;12.30;99.90;;;;;;6146318;23;20399;-73
2021/12/22 12:59:27;;;;;;;70.60;34.60;;;12.30;99.90;;;;;;6200264;23;20024;-74
2021/12/22 13:01:57;;;;;;;64.68;35.30;;;12.30;99.90;;;;;;6175975;23;20008;-74
2021/12/22 13:04:31;;;;;;;60.55;34.70;;;12.30;99.90;;;;;;6204268;23;20436;-75
2021/12/22 13:07:07;;;;;;;67.05;35.47;;;12.30;99.90;;;;;;6207321;23;20008;-73